Time;durP1;ratioP1;P1;durP2;ratioP2;P2;SDS_P1;SDS_P2;PMS_P1;PMS_P2;Temp;Humidity;BMP_temperature;BMP_pressure;BME280_temperature;BME280_humidity;BME280_pressure;Samples;Min_cycle;Max_cycle;Signal;HPM_P1;HPM_P2
2022/04/18 02:43:20;;;;;;;14.78;7.92;;;;;;;4.75;51.04;99520.05;1800349;79;22511;-35
2022/04/18 02:45:46;;;;;;;14.35;7.70;;;;;;;4.71;49.85;99519.70;1760524;81;21189;-35
2022/04/18 02:48:12;;;;;;;15.03;7.60;;;;;;;4.72;49.92;99518.81;1760442;81;21062;-38
2022/04/18 02:50:38;;;;;;;17.12;7.62;;;;;;;4.75;49.82;99522.20;1760548;81;21058;-37
2022/04/18 02:53:05;;;;;;;13.03;7.55;;;;;;;4.78;49.49;99520.81;1761131;80;21050;-36
2022/04/18 02:55:31;;;;;;;12.33;7.17;;;;;;;4.74;49.95;99520.93;1761812;81;20963;-37
2022/04/18 02:57:57;;;;;;;12.43;7.25;;;;;;;4.75;49.55;99517.44;1761726;81;21019;-37
2022/04/18 03:00:23;;;;;;;12.90;7.50;;;;;;;4.70;49.72;99514.95;1761934;81;21026;-37
2022/04/18 03:02:48;;;;;;;13.90;7.28;;;;;;;4.68;49.39;99505.48;1761774;81;21492;-37
2022/04/18 03:05:14;;;;;;;14.15;7.62;;;;;;;4.69;49.68;99500.66;1761822;81;20952;-38
2022/04/18 03:07:40;;;;;;;13.93;6.72;;;;;;;4.69;49.86;99504.11;1761928;81;20975;-37
2022/04/18 03:10:07;;;;;;;13.48;6.90;;;;;;;4.69;50.27;99500.66;1761720;81;20995;-39
2022/04/18 03:12:33;;;;;;;10.35;6.28;;;;;;;4.71;49.70;99505.37;1761895;80;21022;-38
2022/04/18 03:14:59;;;;;;;13.25;7.03;;;;;;;4.67;49.51;99499.85;1761736;80;21456;-37
2022/04/18 03:17:25;;;;;;;17.17;7.28;;;;;;;4.67;49.79;99499.85;1761785;81;20970;-37
2022/04/18 03:19:52;;;;;;;11.05;6.75;;;;;;;4.68;49.78;99501.58;1761728;81;20964;-39
2022/04/18 03:22:19;;;;;;;14.43;6.75;;;;;;;4.65;49.65;99506.86;1761699;81;21465;-38
2022/04/18 03:24:46;;;;;;;12.30;6.55;;;;;;;4.65;49.55;99505.55;1761962;80;20994;-36
2022/04/18 03:27:13;;;;;;;13.98;6.85;;;;;;;4.64;49.77;99504.71;1762023;80;21002;-35
2022/04/18 03:29:39;;;;;;;17.07;7.28;;;;;;;4.63;49.64;99505.59;1761981;80;20956;-36
2022/04/18 03:32:06;;;;;;;11.75;6.42;;;;;;;4.61;49.71;99500.88;1761816;80;21464;-36
2022/04/18 03:34:32;;;;;;;13.30;6.28;;;;;;;4.67;49.30;99495.94;1761867;81;21433;-37
2022/04/18 03:39:51;;;;;;;12.18;6.20;;;;;;;4.66;49.37;99499.43;1761742;80;21051;-37
2022/04/18 03:42:31;;;;;;;11.70;6.45;;;;;;;4.64;49.43;99497.32;1761646;80;21020;-37
2022/04/18 03:45:00;;;;;;;13.55;6.33;;;;;;;4.61;49.24;99501.72;1762025;81;20999;-36
2022/04/18 03:47:27;;;;;;;15.45;6.90;;;;;;;4.56;49.37;99498.84;1762020;81;20998;-38
2022/04/18 03:49:54;;;;;;;10.70;6.62;;;;;;;4.56;49.56;99500.14;1762121;81;20986;-37
2022/04/18 03:52:21;;;;;;;12.68;6.95;;;;;;;4.53;49.41;99498.48;1762146;81;21470;-36
2022/04/18 03:54:47;;;;;;;13.43;7.10;;;;;;;4.53;49.69;99501.09;1761626;81;20999;-38
2022/04/18 03:57:14;;;;;;;14.93;8.03;;;;;;;4.51;49.61;99497.69;1761416;81;21035;-37
2022/04/18 03:59:40;;;;;;;19.95;8.10;;;;;;;4.52;50.01;99502.44;1761566;80;21473;-38
2022/04/18 04:02:06;;;;;;;17.75;8.10;;;;;;;4.51;50.24;99498.98;1761379;81;21461;-36
2022/04/18 04:04:32;;;;;;;19.35;8.00;;;;;;;4.51;50.30;99504.62;1761397;81;20991;-38
2022/04/18 04:06:59;;;;;;;15.03;8.05;;;;;;;4.51;50.19;99510.70;1761428;81;21493;-37
2022/04/18 04:09:25;;;;;;;16.70;8.55;;;;;;;4.46;50.26;99499.55;1761377;80;21038;-37
2022/04/18 04:11:51;;;;;;;13.72;7.60;;;;;;;4.48;49.80;99504.72;1761382;81;21058;-38
2022/04/18 04:14:18;;;;;;;13.83;7.28;;;;;;;4.44;50.33;99503.95;1761498;81;20963;-37
2022/04/18 04:16:44;;;;;;;15.48;8.05;;;;;;;4.40;50.14;99496.67;1761764;81;21477;-38
2022/04/18 04:19:10;;;;;;;12.82;7.45;;;;;;;4.40;50.04;99496.67;1761481;81;20959;-39
2022/04/18 04:21:35;;;;;;;15.32;8.30;;;;;;;4.38;50.30;99497.16;1761401;81;21043;-37
2022/04/18 04:24:01;;;;;;;14.13;7.60;;;;;;;4.37;51.08;99499.34;1761398;81;21049;-38
2022/04/18 04:26:28;;;;;;;13.28;7.33;;;;;;;4.36;50.82;99492.87;1761504;81;20987;-37
2022/04/18 04:28:54;;;;;;;14.50;7.62;;;;;;;4.40;50.26;99499.70;1761762;81;21496;-36
2022/04/18 04:31:20;;;;;;;17.62;7.75;;;;;;;4.32;50.93;99499.91;1761380;81;20986;-34
2022/04/18 04:33:45;;;;;;;13.20;7.78;;;;;;;4.35;51.27;99501.59;1761397;81;21019;-36
2022/04/18 04:36:17;;;;;;;14.33;7.60;;;;;;;4.35;50.95;99501.59;1761406;81;21131;-38
2022/04/18 04:38:39;;;;;;;12.65;7.67;;;;;;;4.33;50.95;99496.42;1759786;81;20995;-35
2022/04/18 04:41:05;;;;;;;14.98;8.55;;;;;;;4.38;51.23;99490.66;1761355;81;20984;-36
2022/04/18 04:43:30;;;;;;;20.02;7.70;;;;;;;4.41;50.96;99492.30;1761310;80;21007;-36
2022/04/18 04:45:57;;;;;;;14.50;7.20;;;;;;;4.44;51.02;99493.53;1761383;81;20988;-36
2022/04/18 04:48:26;;;;;;;14.55;7.70;;;;;;;4.40;50.94;99489.28;1761364;81;20995;-35
2022/04/18 04:50:52;;;;;;;18.05;7.42;;;;;;;4.44;51.25;99496.14;1761362;81;20995;-35
2022/04/18 04:53:18;;;;;;;12.68;7.20;;;;;;;4.48;51.01;99493.84;1761472;81;20979;-35
2022/04/18 04:55:45;;;;;;;16.45;7.95;;;;;;;4.53;50.96;99489.38;1761499;81;20994;-36
2022/04/18 04:58:11;;;;;;;13.70;7.25;;;;;;;4.57;50.72;99487.54;1761754;81;20988;-35
2022/04/18 05:00:38;;;;;;;17.35;7.25;;;;;;;4.61;50.62;99493.91;1761389;81;20999;-37
2022/04/18 05:03:06;;;;;;;17.75;8.13;;;;;;;4.63;50.48;99491.27;1761573;81;21475;-35
2022/04/18 05:05:32;;;;;;;14.83;7.62;;;;;;;4.62;50.75;99489.58;1761453;81;20990;-35
2022/04/18 05:07:58;;;;;;;13.43;7.55;;;;;;;4.67;50.36;99490.28;1761367;81;20990;-37
2022/04/18 05:10:24;;;;;;;15.00;7.15;;;;;;;4.64;50.73;99483.88;1761454;81;21030;-36
2022/04/18 05:12:50;;;;;;;13.20;7.80;;;;;;;4.67;50.77;99490.73;1761456;81;21030;-36
2022/04/18 05:15:16;;;;;;;13.05;7.03;;;;;;;4.71;50.32;99489.31;1761386;81;21528;-35
2022/04/18 05:17:42;;;;;;;11.25;6.78;;;;;;;4.79;50.10;99486.48;1761385;81;21644;-36
2022/04/18 05:20:09;;;;;;;13.93;7.20;;;;;;;4.80;50.04;99499.48;1761312;80;21023;-38
2022/04/18 05:22:35;;;;;;;12.15;7.45;;;;;;;4.81;50.33;99497.72;1761511;81;21034;-35
2022/04/18 05:25:01;;;;;;;11.85;6.92;;;;;;;4.84;49.70;99497.64;1761442;81;21030;-35
2022/04/18 05:27:27;;;;;;;14.35;7.20;;;;;;;4.85;49.87;99498.48;1761424;81;21475;-36
2022/04/18 05:29:53;;;;;;;12.73;6.95;;;;;;;4.86;49.84;99496.27;1761436;81;21069;-35
2022/04/18 05:32:19;;;;;;;11.75;7.00;;;;;;;4.90;49.92;99500.52;1761443;81;21035;-35
2022/04/18 05:34:45;;;;;;;21.48;9.35;;;;;;;4.96;49.86;99499.02;1761333;81;21010;-35
2022/04/18 05:37:11;;;;;;;18.87;9.50;;;;;;;5.02;49.72;99503.20;1761331;81;21034;-36
2022/04/18 05:39:37;;;;;;;18.02;8.93;;;;;;;5.09;49.53;99506.03;1761326;81;20998;-37
2022/04/18 05:42:04;;;;;;;15.55;8.30;;;;;;;5.18;49.28;99501.42;1761273;80;20979;-42
2022/04/18 05:44:32;;;;;;;23.50;12.47;;;;;;;5.21;49.42;99496.55;1761628;81;21030;-37
2022/04/18 05:46:57;;;;;;;19.48;9.05;;;;;;;5.27;49.26;99502.88;1761369;81;21555;-37
2022/04/18 05:49:23;;;;;;;11.73;7.05;;;;;;;5.22;49.29;99498.27;1761281;80;20995;-35
2022/04/18 05:51:50;;;;;;;13.62;6.67;;;;;;;5.17;49.26;99504.91;1761324;81;21121;-39
2022/04/18 05:54:16;;;;;;;14.98;7.53;;;;;;;5.14;49.15;99497.17;1761373;81;20951;-36
2022/04/18 05:56:41;;;;;;;12.88;6.40;;;;;;;5.08;49.25;99498.67;1761388;80;20998;-36
2022/04/18 05:59:07;;;;;;;14.03;7.28;;;;;;;5.11;49.68;99501.20;1761394;81;21504;-38
2022/04/18 06:01:34;;;;;;;12.70;7.17;;;;;;;5.18;49.77;99491.42;1761400;80;21449;-37
2022/04/18 06:04:00;;;;;;;12.37;6.72;;;;;;;5.30;49.66;99491.05;1761618;80;21010;-38
2022/04/18 06:06:25;;;;;;;9.98;5.87;;;;;;;5.46;49.53;99491.91;1761331;80;20991;-38
2022/04/18 06:08:51;;;;;;;13.00;6.47;;;;;;;5.53;48.87;99493.39;1761329;81;21003;-37
2022/04/18 06:11:17;;;;;;;10.08;6.50;;;;;;;5.57;48.72;99491.11;1761338;80;20968;-38
2022/04/18 06:13:43;;;;;;;14.20;6.90;;;;;;;5.60;48.72;99492.30;1761317;81;20987;-37
2022/04/18 06:16:08;;;;;;;10.38;5.90;;;;;;;5.67;48.64;99499.02;1761330;81;21031;-37
2022/04/18 06:18:34;;;;;;;12.35;6.67;;;;;;;5.74;48.57;99504.91;1761285;81;21002;-36
2022/04/18 06:21:00;;;;;;;14.93;6.45;;;;;;;5.80;48.30;99487.73;1761394;81;21034;-36
2022/04/18 06:23:26;;;;;;;12.98;6.28;;;;;;;5.86;48.07;99494.08;1761409;81;20987;-40
2022/04/18 06:25:52;;;;;;;13.10;6.00;;;;;;;5.92;48.04;99491.72;1761365;81;20998;-38
2022/04/18 06:28:19;;;;;;;12.30;6.17;;;;;;;5.95;47.82;99495.55;1761403;80;21661;-37
2022/04/18 06:30:44;;;;;;;12.18;6.03;;;;;;;6.00;47.48;99496.25;1761445;81;20991;-37
2022/04/18 06:33:12;;;;;;;12.28;6.67;;;;;;;6.03;47.68;99496.16;1761270;81;20979;-37
2022/04/18 06:35:38;;;;;;;11.55;5.95;;;;;;;6.07;47.73;99498.21;1761476;81;20994;-37
2022/04/18 06:38:05;;;;;;;10.60;6.37;;;;;;;6.11;47.22;99495.46;1761584;81;21003;-36
2022/04/18 06:40:31;;;;;;;11.95;6.05;;;;;;;6.03;46.79;99498.77;1761568;81;21471;-38
2022/04/18 06:42:57;;;;;;;8.78;6.45;;;;;;;6.00;47.01;99497.55;1741546;82;21534;-37
2022/04/18 06:45:24;;;;;;;10.28;6.40;;;;;;;5.99;46.77;99501.09;1755880;81;21003;-36
2022/04/18 06:47:50;;;;;;;10.43;6.17;;;;;;;6.06;46.77;99497.83;1756217;81;20974;-38
2022/04/18 06:50:16;;;;;;;10.23;6.80;;;;;;;6.13;46.85;99501.48;1756067;82;20964;-37
2022/04/18 06:52:49;;;;;;;11.63;6.33;;;;;;;6.19;46.92;99496.96;1756018;80;21042;-36
2022/04/18 06:55:13;;;;;;;8.90;5.92;;;;;;;6.19;46.61;99499.58;1755615;81;21091;-45
2022/04/18 06:57:38;;;;;;;13.78;6.35;;;;;;;6.25;46.57;99495.44;1755992;81;21795;-37
2022/04/18 07:00:06;;;;;;;11.22;6.70;;;;;;;6.28;46.46;99496.19;1755909;82;21003;-37
2022/04/18 07:02:32;;;;;;;;;;;;;;;6.35;46.40;99495.53;1758523;80;20984;-37
2022/04/18 07:04:58;;;;;;;9.60;5.80;;;;;;;6.41;46.44;99493.16;1756002;80;20135;-36
2022/04/18 07:07:24;;;;;;;8.45;6.33;;;;;;;6.48;46.32;99479.81;1755953;82;20982;-35
2022/04/18 07:09:50;;;;;;;12.00;5.55;;;;;;;6.55;45.81;99484.38;1755974;81;21488;-36
2022/04/18 07:12:22;;;;;;;10.63;5.35;;;;;;;6.63;45.36;99481.02;1755931;82;21327;-37
2022/04/18 07:14:49;;;;;;;7.50;5.00;;;;;;;6.75;45.23;99484.09;1755246;81;20999;-35
2022/04/18 07:17:15;;;;;;;8.68;4.92;;;;;;;6.83;45.30;99480.75;1756176;81;21003;-37
2022/04/18 07:19:41;;;;;;;7.67;4.85;;;;;;;6.95;44.34;99487.27;1755979;82;21003;-40
2022/04/18 07:22:07;;;;;;;7.87;5.20;;;;;;;7.05;44.58;99478.19;1755957;81;21603;-39
2022/04/18 07:24:33;;;;;;;10.78;6.67;;;;;;;7.14;44.52;99474.38;1755959;81;21477;-37
2022/04/18 07:27:01;;;;;;;8.98;5.65;;;;;;;7.27;44.63;99486.06;1755919;82;21003;-37
2022/04/18 07:29:27;;;;;;;;;;;;;;;7.33;44.01;99481.05;1758593;81;21445;-40
2022/04/18 07:31:54;;;;;;;9.33;5.85;;;;;;;7.35;43.79;99484.02;1756459;81;20104;-39
2022/04/18 07:34:20;;;;;;;12.43;5.35;;;;;;;7.45;43.63;99479.27;1756143;82;20999;-40
2022/04/18 07:36:47;;;;;;;7.53;5.00;;;;;;;7.54;44.08;99478.89;1756404;82;20983;-37
2022/04/18 07:39:12;;;;;;;11.95;5.35;;;;;;;7.71;44.08;99482.60;1756168;81;20975;-41
2022/04/18 07:41:38;;;;;;;13.28;4.87;;;;;;;7.84;43.70;99482.05;1756120;80;20984;-37
2022/04/18 07:44:05;;;;;;;5.30;3.98;;;;;;;7.96;43.40;99483.30;1750180;80;21560;-35
2022/04/18 07:46:31;;;;;;;8.15;4.35;;;;;;;8.13;42.93;99485.66;1748321;82;20988;-39
2022/04/18 07:48:57;;;;;;;9.48;4.05;;;;;;;8.23;41.97;99489.61;1748046;82;21016;-37
2022/04/18 07:51:32;;;;;;;6.30;4.45;;;;;;;8.27;41.28;99481.53;1748218;81;20992;-39
2022/04/18 07:54:00;;;;;;;6.28;4.60;;;;;;;8.26;42.04;99486.88;1748277;82;21047;-40
2022/04/18 07:56:26;;;;;;;12.30;4.83;;;;;;;8.37;42.08;99485.95;1748112;81;21031;-38
2022/04/18 07:58:52;;;;;;;6.85;4.05;;;;;;;8.39;41.29;99481.48;1748087;81;20968;-40
2022/04/18 08:01:19;;;;;;;6.50;4.07;;;;;;;8.48;41.61;99482.02;1748261;81;21115;-39
2022/04/18 08:03:46;;;;;;;6.28;4.58;;;;;;;8.59;41.72;99487.20;1748265;81;21473;-36
2022/04/18 08:06:13;;;;;;;9.33;4.08;;;;;;;8.67;40.83;99489.47;1748213;81;20964;-38
2022/04/18 08:08:39;;;;;;;12.18;5.30;;;;;;;8.62;39.50;99485.77;1748051;82;21473;-37
2022/04/18 08:11:05;;;;;;;8.88;4.25;;;;;;;8.72;39.46;99486.66;1748029;81;21609;-39
2022/04/18 08:13:31;;;;;;;5.62;3.65;;;;;;;8.76;39.46;99489.06;1748069;81;20968;-38
2022/04/18 08:15:57;;;;;;;5.25;3.30;;;;;;;8.84;39.40;99482.16;1748081;81;20998;-36
2022/04/18 08:18:23;;;;;;;7.87;3.72;;;;;;;8.89;38.73;99484.12;1748099;81;21035;-38
2022/04/18 08:20:50;;;;;;;5.53;3.33;;;;;;;8.87;37.58;99478.56;1748087;81;20953;-38
2022/04/18 08:23:16;;;;;;;7.08;2.15;;;;;;;8.91;38.68;99479.65;1748144;81;21487;-39
2022/04/18 08:25:42;;;;;;;6.22;2.90;;;;;;;8.81;37.21;99470.52;1748031;81;20971;-38
2022/04/18 08:28:07;;;;;;;4.75;3.12;;;;;;;8.92;37.90;99476.12;1748043;81;20988;-39
2022/04/18 08:30:34;;;;;;;3.92;2.42;;;;;;;8.99;37.10;99480.64;1748106;81;21023;-39
2022/04/18 08:32:59;;;;;;;4.15;2.85;;;;;;;8.97;37.27;99480.70;1748115;82;20991;-37
2022/04/18 08:35:26;;;;;;;7.03;3.05;;;;;;;9.02;37.32;99472.60;1748101;81;21528;-38
2022/04/18 08:37:52;;;;;;;7.05;3.05;;;;;;;9.15;36.23;99465.89;1748066;81;21663;-36
2022/04/18 08:40:18;;;;;;;4.30;2.70;;;;;;;9.47;36.69;99459.56;1748133;81;20992;-39
2022/04/18 08:42:45;;;;;;;5.80;3.75;;;;;;;9.92;36.99;99463.97;1748178;80;20984;-37
2022/04/18 08:45:14;;;;;;;4.90;2.52;;;;;;;10.32;35.66;99463.30;1748128;81;20968;-39
2022/04/18 08:53:14;;;;;;;1.45;1.30;;;;;;;10.58;29.97;99467.19;1748193;82;21036;-38
2022/04/18 08:55:41;;;;;;;3.55;1.30;;;;;;;10.81;32.35;99467.77;1748146;81;20999;-39
2022/04/18 08:58:09;;;;;;;2.50;1.80;;;;;;;10.62;28.13;99463.92;1748216;81;20987;-37
2022/04/18 09:00:35;;;;;;;2.42;1.57;;;;;;;10.43;28.73;99460.11;1748082;81;20992;-37
2022/04/18 09:03:01;;;;;;;8.15;4.20;;;;;;;10.53;29.81;99460.00;1747997;81;21488;-37
2022/04/18 09:05:27;;;;;;;7.87;4.37;;;;;;;10.30;29.37;99459.86;1748151;81;21464;-39
2022/04/18 09:08:02;;;;;;;8.33;3.72;;;;;;;10.05;30.51;99457.63;1737663;82;20968;-37
2022/04/18 09:10:28;;;;;;;10.08;5.15;;;;;;;9.90;29.66;99450.91;1748010;81;20968;-39
2022/04/18 09:13:08;;;;;;;15.80;4.87;;;;;;;9.96;30.30;99452.37;1748099;81;21482;-38
2022/04/18 09:15:43;;;;;;;5.35;3.87;;;;;;;10.04;29.80;99452.84;1748025;81;21508;-39
2022/04/18 09:18:17;;;;;;;4.67;2.40;;;;;;;10.16;28.60;99452.20;1748063;81;20983;-37
2022/04/18 09:20:47;;;;;;;5.97;2.30;;;;;;;10.47;28.12;99445.86;1747992;81;20960;-38
2022/04/18 09:23:29;;;;;;;3.83;2.70;;;;;;;11.27;29.61;99431.02;1748014;81;21496;-37
2022/04/18 09:26:05;;;;;;;4.80;2.50;;;;;;;12.00;26.24;99432.56;1748055;81;21039;-39
2022/04/18 09:28:33;;;;;;;3.47;2.22;;;;;;;12.72;26.98;99424.73;1748080;81;20995;-36
2022/04/18 09:31:06;;;;;;;2.60;1.72;;;;;;;13.57;28.33;99429.48;1748080;81;21116;-38
2022/04/18 09:33:43;;;;;;;1.77;1.65;;;;;;;14.00;26.80;99432.38;1748060;81;21007;-39
2022/04/18 09:36:20;;;;;;;2.45;1.98;;;;;;;14.19;24.65;99426.70;1746801;81;20988;-38
2022/04/18 09:38:50;;;;;;;;;;;;;;;14.59;27.24;99420.02;1750718;81;21007;-37
2022/04/18 09:41:26;;;;;;;3.20;2.00;;;;;;;14.38;23.72;99418.34;1747979;81;20120;-39
2022/04/18 09:43:54;;;;;;;3.10;1.85;;;;;;;14.61;24.94;99415.92;1753490;81;21031;-38
2022/04/18 09:46:21;;;;;;;2.22;1.82;;;;;;;14.18;24.10;99413.94;1761402;81;20991;-39
2022/04/18 09:48:50;;;;;;;1.60;1.50;;;;;;;13.88;24.95;99416.01;1761436;81;21011;-39
2022/04/18 09:51:27;;;;;;;3.12;2.12;;;;;;;14.11;24.96;99403.89;1761348;81;21448;-41
2022/04/18 09:53:57;;;;;;;1.57;1.47;;;;;;;15.03;25.25;99403.27;1761642;81;20994;-36
2022/04/18 09:56:25;;;;;;;3.90;1.50;;;;;;;15.65;24.09;99399.12;1761336;81;21570;-38
2022/04/18 09:58:53;;;;;;;3.25;1.52;;;;;;;16.41;23.06;99393.41;1761365;81;20971;-47
2022/04/18 10:01:19;;;;;;;1.65;1.20;;;;;;;16.74;21.87;99387.27;1761249;81;20995;-38
2022/04/18 10:03:46;;;;;;;2.42;1.82;;;;;;;16.86;22.45;99377.04;1761609;81;20964;-39
2022/04/18 10:06:12;;;;;;;;;;;;;;;16.71;22.43;99374.23;1764114;81;21030;-38
2022/04/18 10:08:39;;;;;;;2.02;1.40;;;;;;;16.59;21.08;99380.50;1761600;81;20183;-38
2022/04/18 10:11:13;;;;;;;6.83;2.00;;;;;;;16.77;21.36;99368.91;1761660;81;20995;-38
2022/04/18 10:13:39;;;;;;;3.92;1.90;;;;;;;17.60;22.47;99365.69;1761383;81;21006;-39
2022/04/18 10:16:06;;;;;;;1.90;1.52;;;;;;;17.46;22.13;99366.85;1761295;81;20990;-37
2022/04/18 10:18:43;;;;;;;2.67;2.10;;;;;;;18.25;22.28;99363.42;1761536;81;20999;-41
2022/04/18 10:21:27;;;;;;;;;;;;;;;18.60;21.42;99352.36;1763817;80;21002;-39
2022/04/18 10:24:21;;;;;;;3.47;2.00;;;;;;;18.52;19.91;99362.83;1761340;81;20103;-40
2022/04/18 10:27:07;;;;;;;2.40;1.75;;;;;;;19.44;20.40;99351.15;1761157;81;21511;-40
2022/04/18 10:29:44;;;;;;;4.47;2.25;;;;;;;19.48;18.87;99345.87;1760766;81;20995;-37
2022/04/18 10:32:11;;;;;;;3.20;2.17;;;;;;;20.17;20.16;99357.33;1761459;81;20976;-37
2022/04/18 10:34:39;;;;;;;3.85;2.02;;;;;;;20.64;20.44;99338.63;1761538;81;21500;-42
2022/04/18 10:37:05;;;;;;;1.87;1.70;;;;;;;20.87;18.84;99347.93;1761443;81;20967;-38
2022/04/18 10:39:38;;;;;;;2.35;1.60;;;;;;;20.76;18.63;99334.77;1761600;81;21535;-37
2022/04/18 10:42:22;;;;;;;3.62;1.70;;;;;;;21.60;18.98;99340.83;1761291;81;21035;-39
2022/04/18 10:45:19;;;;;;;2.65;1.70;;;;;;;21.73;17.25;99345.27;1752128;81;21028;-42
2022/04/18 10:48:10;;;;;;;2.35;1.60;;;;;;;21.75;16.99;99348.62;1747983;81;21551;-40
2022/04/18 10:50:46;;;;;;;4.33;1.70;;;;;;;22.18;17.10;99342.91;1747980;81;20999;-38
2022/04/18 10:53:19;;;;;;;3.67;1.82;;;;;;;21.47;16.03;99342.05;1747989;81;20991;-38
2022/04/18 10:55:57;;;;;;;2.40;1.40;;;;;;;21.92;16.78;99341.58;1748076;81;21599;-38
2022/04/18 10:58:25;;;;;;;1.60;1.50;;;;;;;21.77;16.25;99330.58;1747972;81;21512;-39
2022/04/18 11:00:55;;;;;;;1.50;1.40;;;;;;;22.53;16.47;99339.77;1747983;81;21554;-37
2022/04/18 11:03:40;;;;;;;1.98;1.77;;;;;;;22.57;16.32;99331.73;1747931;82;21475;-38
2022/04/18 11:06:32;;;;;;;2.15;1.95;;;;;;;22.93;15.95;99332.88;1748096;81;21606;-37
2022/04/18 11:09:08;;;;;;;3.98;2.10;;;;;;;23.78;16.17;99325.13;1748180;81;21003;-39
2022/04/18 11:11:48;;;;;;;2.33;1.90;;;;;;;23.91;14.86;99309.86;1748170;81;21183;-36
2022/04/18 11:14:17;;;;;;;1.72;1.62;;;;;;;24.22;15.77;99311.81;1737549;82;20980;-38
2022/04/18 11:16:48;;;;;;;3.30;1.65;;;;;;;24.83;16.04;99307.56;1748136;81;21002;-37
2022/04/18 11:19:19;;;;;;;1.65;1.50;;;;;;;24.79;15.17;99295.97;1748142;81;21489;-36
2022/04/18 11:22:00;;;;;;;1.52;1.42;;;;;;;24.28;14.39;99316.48;1748096;81;21439;-40
2022/04/18 11:24:52;;;;;;;2.50;1.50;;;;;;;22.93;15.56;99311.42;1748087;81;20987;-36
2022/04/18 11:27:25;;;;;;;1.42;1.32;;;;;;;21.89;15.88;99305.74;1748195;81;21512;-36
2022/04/18 11:30:05;;;;;;;2.87;1.50;;;;;;;20.84;16.69;99298.77;1747715;81;20968;-38
2022/04/18 11:32:34;;;;;;;1.92;1.70;;;;;;;21.28;17.03;99298.03;1748222;81;21031;-38
2022/04/18 11:35:05;;;;;;;3.90;1.80;;;;;;;20.67;16.31;99304.44;1748023;81;20960;-38
2022/04/18 11:37:39;;;;;;;7.25;1.87;;;;;;;20.30;16.90;99299.95;1748115;82;21043;-36
2022/04/18 11:40:15;;;;;;;4.03;1.62;;;;;;;19.26;17.90;99309.17;1747931;81;21070;-40
2022/04/18 11:42:42;;;;;;;2.15;1.40;;;;;;;20.90;17.31;99300.86;1748199;81;20984;-37
2022/04/18 11:45:12;;;;;;;1.60;1.50;;;;;;;21.97;17.02;99297.75;1757545;81;21054;-36
2022/04/18 11:47:47;;;;;;;1.87;1.60;;;;;;;22.46;16.35;99286.48;1760390;81;21038;-37
2022/04/18 11:50:21;;;;;;;1.60;1.50;;;;;;;23.12;15.79;99278.16;1761430;81;20995;-37
2022/04/18 11:52:43;;;;;;;2.25;1.75;;;;;;;22.00;16.31;99288.58;1760899;81;20960;-38
2022/04/18 11:55:14;;;;;;;2.72;1.47;;;;;;;21.62;16.59;99290.66;1761742;81;21582;-38
2022/04/18 11:57:44;;;;;;;2.25;1.50;;;;;;;20.79;16.70;99285.05;1761459;81;21031;-37
2022/04/18 12:00:14;;;;;;;1.32;1.12;;;;;;;21.76;15.46;99284.75;1761395;80;21003;-37
2022/04/18 12:08:18;;;;;;;1.20;1.10;;;;;;;20.91;15.89;99264.27;1761431;81;21023;-37
2022/04/18 12:10:45;;;;;;;5.17;1.22;;;;;;;21.94;15.70;99255.72;1761424;80;20976;-39
2022/04/18 12:13:15;;;;;;;;;;;;;;;20.64;15.85;99263.82;1764091;81;21007;-38
2022/04/18 12:15:43;;;;;;;3.45;1.40;;;;;;;19.84;16.30;99264.27;1761390;81;20425;-37
2022/04/18 12:18:16;;;;;;;1.50;1.35;;;;;;;21.39;16.38;99251.48;1761425;81;20999;-37
2022/04/18 12:20:50;;;;;;;2.90;2.10;;;;;;;22.51;15.71;99237.27;1760065;81;21034;-37
2022/04/18 12:23:22;;;;;;;1.40;1.30;;;;;;;22.88;15.18;99242.70;1761380;81;21042;-37
2022/04/18 12:25:51;;;;;;;1.45;1.35;;;;;;;21.36;15.55;99252.65;1761426;81;21010;-36
2022/04/18 12:28:20;;;;;;;2.08;1.45;;;;;;;22.28;15.57;99249.57;1757795;81;20995;-37
2022/04/18 12:30:50;;;;;;;1.15;1.05;;;;;;;21.96;15.29;99242.53;1761392;81;20995;-36
2022/04/18 12:33:21;;;;;;;1.62;1.37;;;;;;;21.78;15.47;99234.57;1760664;81;21026;-36
2022/04/18 12:35:51;;;;;;;1.98;1.25;;;;;;;22.01;15.57;99241.56;1761506;81;20959;-37
2022/04/18 12:38:20;;;;;;;1.40;1.30;;;;;;;21.85;15.40;99228.09;1760355;81;21123;-37
2022/04/18 12:40:55;;;;;;;2.15;1.30;;;;;;;20.20;16.53;99223.05;1761388;81;21038;-37
2022/04/18 12:43:28;;;;;;;21.37;2.08;;;;;;;20.08;16.65;99228.23;1761388;81;21003;-36
2022/04/18 12:46:09;;;;;;;2.02;1.50;;;;;;;21.61;16.10;99224.75;1748717;81;21016;-37
2022/04/18 12:48:39;;;;;;;1.57;1.47;;;;;;;22.46;16.15;99216.81;1748112;81;20984;-36
2022/04/18 12:51:07;;;;;;;3.85;1.70;;;;;;;22.34;15.50;99218.11;1748085;81;21488;-37
2022/04/18 12:53:51;;;;;;;1.90;1.00;;;;;;;21.96;15.41;99221.63;1748088;81;21031;-38
2022/04/18 12:56:23;;;;;;;1.42;1.02;;;;;;;21.98;15.47;99216.95;1747981;82;20999;-37
2022/04/18 12:59:04;;;;;;;1.77;1.00;;;;;;;22.77;15.08;99212.19;1748074;81;21050;-36
2022/04/18 13:01:34;;;;;;;1.65;1.32;;;;;;;23.24;15.00;99198.16;1745556;81;21485;-37
2022/04/18 13:04:05;;;;;;;2.02;1.25;;;;;;;23.36;14.43;99195.48;1748040;81;21022;-38
2022/04/18 13:06:33;;;;;;;1.92;1.40;;;;;;;23.88;14.35;99194.72;1748172;81;20976;-37
2022/04/18 13:09:10;;;;;;;1.70;1.60;;;;;;;23.73;13.73;99187.34;1748010;81;21000;-36
2022/04/18 13:11:43;;;;;;;1.40;1.20;;;;;;;23.42;14.93;99187.77;1748283;81;21018;-37
2022/04/18 13:14:11;;;;;;;2.77;1.37;;;;;;;22.24;13.86;99190.09;1747997;81;20996;-37
2022/04/18 13:16:39;;;;;;;3.52;1.50;;;;;;;20.78;15.40;99194.33;1748178;81;21039;-36
2022/04/18 13:19:10;;;;;;;1.37;1.10;;;;;;;20.41;15.53;99189.42;1748007;81;20988;-37
2022/04/18 13:21:37;;;;;;;2.47;1.47;;;;;;;20.03;15.40;99188.66;1748002;81;21016;-36
2022/04/18 13:24:05;;;;;;;2.77;1.50;;;;;;;18.85;15.90;99189.05;1748239;81;21031;-36
2022/04/18 13:26:34;;;;;;;2.05;1.32;;;;;;;18.58;16.41;99187.88;1747975;81;20995;-36
2022/04/18 13:29:00;;;;;;;2.75;1.62;;;;;;;17.57;16.67;99185.63;1748104;81;21374;-36
2022/04/18 13:31:27;;;;;;;1.65;1.30;;;;;;;17.36;17.19;99190.48;1747970;82;21055;-36
2022/04/18 13:33:53;;;;;;;1.90;1.20;;;;;;;17.17;17.23;99188.55;1748194;82;20999;-36
2022/04/18 13:36:39;;;;;;;2.15;1.80;;;;;;;16.94;17.49;99190.97;1748111;82;21042;-36
2022/04/18 13:39:09;;;;;;;2.75;1.50;;;;;;;16.47;18.09;99180.60;1747872;81;20995;-37
2022/04/18 13:41:37;;;;;;;1.65;1.30;;;;;;;16.24;18.16;99167.38;1747584;81;20968;-37
2022/04/18 13:44:04;;;;;;;1.30;1.17;;;;;;;16.18;19.81;99164.39;1747937;81;21035;-36
2022/04/18 13:46:31;;;;;;;1.60;1.10;;;;;;;16.07;18.82;99156.80;1748183;81;20975;-36
2022/04/18 13:48:57;;;;;;;5.15;1.10;;;;;;;15.73;18.61;99154.17;1748208;81;21446;-35
2022/04/18 13:51:26;;;;;;;3.50;1.30;;;;;;;14.98;19.19;99159.47;1748232;82;20988;-35
2022/04/18 13:53:53;;;;;;;1.75;1.20;;;;;;;14.16;20.16;99161.96;1748002;82;21861;-36
2022/04/18 13:56:21;;;;;;;2.52;1.30;;;;;;;14.51;20.52;99148.44;1748141;81;20977;-38
2022/04/18 13:58:47;;;;;;;1.50;1.20;;;;;;;14.36;19.92;99143.32;1747971;81;21503;-37
2022/04/18 14:01:13;;;;;;;1.60;1.22;;;;;;;14.57;19.81;99136.97;1747980;81;21475;-37
2022/04/18 14:03:40;;;;;;;3.80;1.40;;;;;;;14.98;19.35;99134.31;1748003;81;20984;-37
2022/04/18 14:06:08;;;;;;;1.57;1.30;;;;;;;13.89;20.35;99136.19;1748035;81;21493;-37
2022/04/18 14:08:37;;;;;;;2.52;1.30;;;;;;;14.10;20.35;99138.62;1748018;81;20968;-36
2022/04/18 14:11:04;;;;;;;1.98;1.30;;;;;;;13.93;20.56;99128.40;1747992;82;21046;-36
2022/04/18 14:13:30;;;;;;;1.72;1.40;;;;;;;13.84;20.51;99127.25;1748108;81;20999;-37
2022/04/18 14:21:26;;;;;;;2.77;1.35;;;;;;;14.24;20.17;99113.80;1748101;82;20972;-37
2022/04/18 14:23:53;;;;;;;8.85;1.60;;;;;;;14.24;20.32;99111.15;1747962;81;20976;-37
2022/04/18 14:26:19;;;;;;;1.82;1.40;;;;;;;14.20;20.21;99115.81;1747971;81;21011;-36
2022/04/18 14:28:45;;;;;;;2.00;1.40;;;;;;;13.88;20.82;99110.70;1748003;81;20991;-36
2022/04/18 14:31:11;;;;;;;3.85;1.70;;;;;;;13.71;21.67;99106.14;1748006;81;20999;-37
2022/04/18 14:33:38;;;;;;;2.30;1.60;;;;;;;13.94;20.87;99101.02;1747947;81;21027;-36
2022/04/18 14:36:07;;;;;;;1.85;1.30;;;;;;;13.86;20.87;99106.00;1748091;81;21003;-36
2022/04/18 14:38:35;;;;;;;1.55;1.35;;;;;;;13.73;21.79;99102.91;1747918;81;21484;-36
2022/04/18 14:41:02;;;;;;;1.75;1.30;;;;;;;13.76;21.05;99104.02;1748144;82;21023;-37
2022/04/18 14:43:28;;;;;;;1.37;1.07;;;;;;;13.70;21.35;99091.26;1747884;81;20988;-37
2022/04/18 14:45:54;;;;;;;1.75;1.05;;;;;;;13.67;21.24;99084.86;1756597;81;21031;-36